sensor_id;sensor_type;location;lat;lon;timestamp;temperature;humidity
46754;DHT22;32500;50.620;3.400;2023-03-01T00:01:11;11.30;60.00
46754;DHT22;32500;50.620;3.400;2023-03-01T00:03:37;11.30;59.50
46754;DHT22;32500;50.620;3.400;2023-03-01T00:06:04;11.40;59.50
46754;DHT22;32500;50.620;3.400;2023-03-01T00:08:30;11.30;59.60
46754;DHT22;32500;50.620;3.400;2023-03-01T00:13:34;11.30;59.50
46754;DHT22;32500;50.620;3.400;2023-03-01T00:16:05;11.30;59.60
46754;DHT22;32500;50.620;3.400;2023-03-01T00:18:31;11.30;59.70
46754;DHT22;32500;50.620;3.400;2023-03-01T00:20:57;11.30;59.60
46754;DHT22;32500;50.620;3.400;2023-03-01T00:23:23;11.30;59.60
46754;DHT22;32500;50.620;3.400;2023-03-01T00:25:49;11.30;59.70
46754;DHT22;32500;50.620;3.400;2023-03-01T00:28:15;11.30;59.50
46754;DHT22;32500;50.620;3.400;2023-03-01T00:30:41;11.30;59.50
46754;DHT22;32500;50.620;3.400;2023-03-01T00:33:06;11.40;59.40
46754;DHT22;32500;50.620;3.400;2023-03-01T00:35:33;11.40;59.50
46754;DHT22;32500;50.620;3.400;2023-03-01T00:37:59;11.30;59.40
46754;DHT22;32500;50.620;3.400;2023-03-01T00:40:29;11.30;59.40
46754;DHT22;32500;50.620;3.400;2023-03-01T00:42:55;11.30;59.60
46754;DHT22;32500;50.620;3.400;2023-03-01T00:45:21;11.30;59.60
46754;DHT22;32500;50.620;3.400;2023-03-01T00:47:48;11.30;59.50
46754;DHT22;32500;50.620;3.400;2023-03-01T00:50:14;11.30;59.60
46754;DHT22;32500;50.620;3.400;2023-03-01T00:52:40;11.30;59.50
46754;DHT22;32500;50.620;3.400;2023-03-01T00:55:06;11.30;59.50
46754;DHT22;32500;50.620;3.400;2023-03-01T00:57:32;11.30;59.50
46754;DHT22;32500;50.620;3.400;2023-03-01T00:59:59;11.30;59.50
46754;DHT22;32500;50.620;3.400;2023-03-01T01:02:25;11.30;59.50
46754;DHT22;32500;50.620;3.400;2023-03-01T01:04:51;11.30;59.40
46754;DHT22;32500;50.620;3.400;2023-03-01T01:07:17;11.30;59.50
46754;DHT22;32500;50.620;3.400;2023-03-01T01:09:43;11.30;59.50
46754;DHT22;32500;50.620;3.400;2023-03-01T01:12:09;11.30;59.50
46754;DHT22;32500;50.620;3.400;2023-03-01T01:14:35;11.30;59.60
46754;DHT22;32500;50.620;3.400;2023-03-01T01:17:00;11.30;59.60
46754;DHT22;32500;50.620;3.400;2023-03-01T01:19:26;11.30;59.50
46754;DHT22;32500;50.620;3.400;2023-03-01T01:21:52;11.30;59.50
46754;DHT22;32500;50.620;3.400;2023-03-01T01:24:19;11.30;59.50
46754;DHT22;32500;50.620;3.400;2023-03-01T01:26:44;11.20;59.50
46754;DHT22;32500;50.620;3.400;2023-03-01T01:29:11;11.20;59.60
46754;DHT22;32500;50.620;3.400;2023-03-01T01:31:38;11.20;59.40
46754;DHT22;32500;50.620;3.400;2023-03-01T01:34:07;11.30;59.70
46754;DHT22;32500;50.620;3.400;2023-03-01T01:36:33;11.20;59.50
46754;DHT22;32500;50.620;3.400;2023-03-01T01:39:00;11.30;59.50
46754;DHT22;32500;50.620;3.400;2023-03-01T01:41:27;11.20;59.60
46754;DHT22;32500;50.620;3.400;2023-03-01T01:46:40;11.20;59.70
46754;DHT22;32500;50.620;3.400;2023-03-01T01:49:19;11.20;59.40
46754;DHT22;32500;50.620;3.400;2023-03-01T01:51:51;11.20;59.60
46754;DHT22;32500;50.620;3.400;2023-03-01T01:54:24;11.20;59.70
46754;DHT22;32500;50.620;3.400;2023-03-01T01:57:03;11.20;59.50
46754;DHT22;32500;50.620;3.400;2023-03-01T01:59:32;11.30;59.50
46754;DHT22;32500;50.620;3.400;2023-03-01T02:02:00;11.20;59.40
46754;DHT22;32500;50.620;3.400;2023-03-01T02:04:28;11.20;59.40
46754;DHT22;32500;50.620;3.400;2023-03-01T02:07:16;11.20;59.40
46754;DHT22;32500;50.620;3.400;2023-03-01T02:09:50;11.20;59.50
46754;DHT22;32500;50.620;3.400;2023-03-01T02:12:18;11.20;59.50
46754;DHT22;32500;50.620;3.400;2023-03-01T02:14:45;11.20;59.40
46754;DHT22;32500;50.620;3.400;2023-03-01T02:17:12;11.20;59.50
46754;DHT22;32500;50.620;3.400;2023-03-01T02:20:02;11.20;59.50
46754;DHT22;32500;50.620;3.400;2023-03-01T02:22:34;11.20;59.40
46754;DHT22;32500;50.620;3.400;2023-03-01T02:25:18;11.20;59.60
46754;DHT22;32500;50.620;3.400;2023-03-01T02:30:45;11.10;59.50
46754;DHT22;32500;50.620;3.400;2023-03-01T02:33:32;11.10;59.50
46754;DHT22;32500;50.620;3.400;2023-03-01T02:36:08;11.20;59.50
46754;DHT22;32500;50.620;3.400;2023-03-01T02:38:35;11.20;59.60
46754;DHT22;32500;50.620;3.400;2023-03-01T02:41:02;11.20;59.60
46754;DHT22;32500;50.620;3.400;2023-03-01T02:43:31;11.10;59.40
46754;DHT22;32500;50.620;3.400;2023-03-01T02:45:59;11.10;59.50
46754;DHT22;32500;50.620;3.400;2023-03-01T02:48:27;11.10;59.50
46754;DHT22;32500;50.620;3.400;2023-03-01T02:54:02;11.10;59.50
46754;DHT22;32500;50.620;3.400;2023-03-01T02:56:31;11.10;59.60
46754;DHT22;32500;50.620;3.400;2023-03-01T02:58:57;11.10;59.60
46754;DHT22;32500;50.620;3.400;2023-03-01T03:01:26;11.10;59.50
46754;DHT22;32500;50.620;3.400;2023-03-01T03:04:06;11.10;59.60
46754;DHT22;32500;50.620;3.400;2023-03-01T03:06:33;11.10;59.60
46754;DHT22;32500;50.620;3.400;2023-03-01T03:08:59;11.00;59.60
46754;DHT22;32500;50.620;3.400;2023-03-01T03:11:25;11.10;59.70
46754;DHT22;32500;50.620;3.400;2023-03-01T03:13:51;11.10;59.70
46754;DHT22;32500;50.620;3.400;2023-03-01T03:16:18;11.10;59.70
46754;DHT22;32500;50.620;3.400;2023-03-01T03:18:43;11.10;59.60
46754;DHT22;32500;50.620;3.400;2023-03-01T03:21:11;11.00;59.60
46754;DHT22;32500;50.620;3.400;2023-03-01T03:23:37;11.00;59.60
46754;DHT22;32500;50.620;3.400;2023-03-01T03:26:03;11.00;59.70
46754;DHT22;32500;50.620;3.400;2023-03-01T03:28:33;11.00;60.00
46754;DHT22;32500;50.620;3.400;2023-03-01T03:30:59;11.80;58.90
46754;DHT22;32500;50.620;3.400;2023-03-01T03:33:32;13.20;55.90
46754;DHT22;32500;50.620;3.400;2023-03-01T03:35:57;14.60;52.40
46754;DHT22;32500;50.620;3.400;2023-03-01T03:38:23;15.60;49.90
46754;DHT22;32500;50.620;3.400;2023-03-01T03:41:01;16.30;48.00
46754;DHT22;32500;50.620;3.400;2023-03-01T03:43:28;16.90;46.60
46754;DHT22;32500;50.620;3.400;2023-03-01T03:45:54;17.30;45.60
46754;DHT22;32500;50.620;3.400;2023-03-01T03:48:20;17.60;44.90
46754;DHT22;32500;50.620;3.400;2023-03-01T03:50:55;17.80;44.20
46754;DHT22;32500;50.620;3.400;2023-03-01T03:53:23;18.10;43.60
46754;DHT22;32500;50.620;3.400;2023-03-01T03:55:49;18.20;43.20
46754;DHT22;32500;50.620;3.400;2023-03-01T03:58:15;18.30;42.90
46754;DHT22;32500;50.620;3.400;2023-03-01T04:00:43;18.40;42.70
46754;DHT22;32500;50.620;3.400;2023-03-01T04:03:10;18.40;42.40
46754;DHT22;32500;50.620;3.400;2023-03-01T04:05:37;18.40;42.60
46754;DHT22;32500;50.620;3.400;2023-03-01T04:08:03;18.30;42.60
46754;DHT22;32500;50.620;3.400;2023-03-01T04:10:37;18.30;42.60
46754;DHT22;32500;50.620;3.400;2023-03-01T04:13:05;17.80;42.80
46754;DHT22;32500;50.620;3.400;2023-03-01T04:15:31;17.00;44.50
46754;DHT22;32500;50.620;3.400;2023-03-01T04:17:58;16.50;45.80
46754;DHT22;32500;50.620;3.400;2023-03-01T04:20:26;16.20;46.70
46754;DHT22;32500;50.620;3.400;2023-03-01T04:23:19;16.00;47.10
46754;DHT22;32500;50.620;3.400;2023-03-01T04:28:20;15.80;47.80
46754;DHT22;32500;50.620;3.400;2023-03-01T04:30:47;15.60;48.10
46754;DHT22;32500;50.620;3.400;2023-03-01T04:33:13;15.60;48.20
46754;DHT22;32500;50.620;3.400;2023-03-01T04:35:39;15.60;48.20
46754;DHT22;32500;50.620;3.400;2023-03-01T04:38:06;15.50;48.60
46754;DHT22;32500;50.620;3.400;2023-03-01T04:40:32;15.30;48.70
46754;DHT22;32500;50.620;3.400;2023-03-01T04:42:58;15.10;49.20
46754;DHT22;32500;50.620;3.400;2023-03-01T04:45:24;15.00;49.50
46754;DHT22;32500;50.620;3.400;2023-03-01T04:47:49;14.90;50.00
46754;DHT22;32500;50.620;3.400;2023-03-01T04:50:17;14.70;50.30
46754;DHT22;32500;50.620;3.400;2023-03-01T04:52:46;14.60;50.70
46754;DHT22;32500;50.620;3.400;2023-03-01T04:55:12;14.60;50.80
46754;DHT22;32500;50.620;3.400;2023-03-01T04:57:37;14.40;51.10
46754;DHT22;32500;50.620;3.400;2023-03-01T05:00:06;14.10;51.70
46754;DHT22;32500;50.620;3.400;2023-03-01T05:02:50;13.60;52.90
46754;DHT22;32500;50.620;3.400;2023-03-01T05:05:20;13.30;54.00
46754;DHT22;32500;50.620;3.400;2023-03-01T05:07:46;13.10;54.40
46754;DHT22;32500;50.620;3.400;2023-03-01T05:10:11;13.00;54.60
46754;DHT22;32500;50.620;3.400;2023-03-01T05:12:37;12.80;55.10
46754;DHT22;32500;50.620;3.400;2023-03-01T05:15:04;12.80;55.40
46754;DHT22;32500;50.620;3.400;2023-03-01T05:17:33;12.60;55.50
46754;DHT22;32500;50.620;3.400;2023-03-01T05:19:59;12.60;55.80
46754;DHT22;32500;50.620;3.400;2023-03-01T05:22:26;12.60;55.70
46754;DHT22;32500;50.620;3.400;2023-03-01T05:24:51;12.50;55.90
46754;DHT22;32500;50.620;3.400;2023-03-01T05:27:19;12.40;56.10
46754;DHT22;32500;50.620;3.400;2023-03-01T05:29:47;12.30;56.20
46754;DHT22;32500;50.620;3.400;2023-03-01T05:32:13;12.30;56.20
46754;DHT22;32500;50.620;3.400;2023-03-01T05:34:41;12.20;56.30
46754;DHT22;32500;50.620;3.400;2023-03-01T05:37:07;12.20;56.30
46754;DHT22;32500;50.620;3.400;2023-03-01T05:39:33;12.20;56.50
46754;DHT22;32500;50.620;3.400;2023-03-01T05:42:00;12.10;56.70
46754;DHT22;32500;50.620;3.400;2023-03-01T05:44:27;12.10;56.70
46754;DHT22;32500;50.620;3.400;2023-03-01T05:46:54;12.10;56.60
46754;DHT22;32500;50.620;3.400;2023-03-01T05:49:20;12.00;56.90
46754;DHT22;32500;50.620;3.400;2023-03-01T05:51:51;12.00;57.10
46754;DHT22;32500;50.620;3.400;2023-03-01T05:54:18;11.90;57.20
46754;DHT22;32500;50.620;3.400;2023-03-01T05:56:44;11.90;57.30
46754;DHT22;32500;50.620;3.400;2023-03-01T05:59:10;11.90;57.30
46754;DHT22;32500;50.620;3.400;2023-03-01T06:01:37;11.80;57.40
46754;DHT22;32500;50.620;3.400;2023-03-01T06:04:03;11.80;57.70
46754;DHT22;32500;50.620;3.400;2023-03-01T06:06:29;11.70;57.90
46754;DHT22;32500;50.620;3.400;2023-03-01T06:08:58;11.70;58.00
46754;DHT22;32500;50.620;3.400;2023-03-01T06:11:24;11.60;58.40
46754;DHT22;32500;50.620;3.400;2023-03-01T06:13:50;11.80;57.60
46754;DHT22;32500;50.620;3.400;2023-03-01T06:16:15;12.10;57.20
46754;DHT22;32500;50.620;3.400;2023-03-01T06:18:41;12.20;57.00
46754;DHT22;32500;50.620;3.400;2023-03-01T06:21:07;12.30;56.50
46754;DHT22;32500;50.620;3.400;2023-03-01T06:23:34;12.30;56.30
46754;DHT22;32500;50.620;3.400;2023-03-01T06:26:00;12.40;56.10
46754;DHT22;32500;50.620;3.400;2023-03-01T06:28:25;12.40;56.40
46754;DHT22;32500;50.620;3.400;2023-03-01T06:30:51;12.30;56.30
46754;DHT22;32500;50.620;3.400;2023-03-01T06:33:18;12.30;56.40
46754;DHT22;32500;50.620;3.400;2023-03-01T06:35:46;12.20;55.60
46754;DHT22;32500;50.620;3.400;2023-03-01T06:38:12;12.30;55.30
46754;DHT22;32500;50.620;3.400;2023-03-01T06:40:40;12.40;55.40
46754;DHT22;32500;50.620;3.400;2023-03-01T06:43:06;12.40;55.20
46754;DHT22;32500;50.620;3.400;2023-03-01T06:45:33;12.40;55.30
46754;DHT22;32500;50.620;3.400;2023-03-01T06:48:05;12.50;54.90
46754;DHT22;32500;50.620;3.400;2023-03-01T06:50:32;12.40;55.30
46754;DHT22;32500;50.620;3.400;2023-03-01T06:52:58;12.40;55.50
46754;DHT22;32500;50.620;3.400;2023-03-01T06:55:24;12.50;55.30
46754;DHT22;32500;50.620;3.400;2023-03-01T06:58:00;12.50;55.30
46754;DHT22;32500;50.620;3.400;2023-03-01T07:00:27;12.40;55.40
46754;DHT22;32500;50.620;3.400;2023-03-01T07:02:53;12.40;56.20
46754;DHT22;32500;50.620;3.400;2023-03-01T07:05:19;12.50;54.90
46754;DHT22;32500;50.620;3.400;2023-03-01T07:07:46;12.70;54.20
46754;DHT22;32500;50.620;3.400;2023-03-01T07:10:12;12.80;53.50
46754;DHT22;32500;50.620;3.400;2023-03-01T07:12:38;13.10;53.70
46754;DHT22;32500;50.620;3.400;2023-03-01T07:15:04;13.20;53.20
46754;DHT22;32500;50.620;3.400;2023-03-01T07:17:30;13.30;53.20
46754;DHT22;32500;50.620;3.400;2023-03-01T07:19:56;13.30;53.00
46754;DHT22;32500;50.620;3.400;2023-03-01T07:22:22;13.40;53.00
46754;DHT22;32500;50.620;3.400;2023-03-01T07:24:47;13.40;52.90
46754;DHT22;32500;50.620;3.400;2023-03-01T07:27:13;13.50;52.90
46754;DHT22;32500;50.620;3.400;2023-03-01T07:31:19;13.40;52.30
46754;DHT22;32500;50.620;3.400;2023-03-01T07:34:16;13.40;51.60
46754;DHT22;32500;50.620;3.400;2023-03-01T07:36:42;13.40;53.00
46754;DHT22;32500;50.620;3.400;2023-03-01T07:39:10;13.30;53.50
46754;DHT22;32500;50.620;3.400;2023-03-01T07:41:35;13.40;54.10
46754;DHT22;32500;50.620;3.400;2023-03-01T07:44:01;13.40;54.30
46754;DHT22;32500;50.620;3.400;2023-03-01T07:46:27;13.40;54.70
46754;DHT22;32500;50.620;3.400;2023-03-01T07:48:53;13.50;55.20
46754;DHT22;32500;50.620;3.400;2023-03-01T07:51:18;13.50;55.20
46754;DHT22;32500;50.620;3.400;2023-03-01T07:53:46;13.50;55.50
46754;DHT22;32500;50.620;3.400;2023-03-01T07:56:41;13.60;55.20
46754;DHT22;32500;50.620;3.400;2023-03-01T07:59:07;13.50;55.00
46754;DHT22;32500;50.620;3.400;2023-03-01T08:01:32;13.40;54.20
46754;DHT22;32500;50.620;3.400;2023-03-01T08:03:58;13.30;54.10
46754;DHT22;32500;50.620;3.400;2023-03-01T08:06:23;13.40;53.90
46754;DHT22;32500;50.620;3.400;2023-03-01T08:08:49;13.70;53.00
46754;DHT22;32500;50.620;3.400;2023-03-01T08:11:15;13.90;52.50
46754;DHT22;32500;50.620;3.400;2023-03-01T08:13:41;14.00;52.10
46754;DHT22;32500;50.620;3.400;2023-03-01T08:16:10;14.10;52.00
46754;DHT22;32500;50.620;3.400;2023-03-01T08:18:37;14.10;52.00
46754;DHT22;32500;50.620;3.400;2023-03-01T08:21:11;14.10;51.80
46754;DHT22;32500;50.620;3.400;2023-03-01T08:23:38;14.10;51.70
46754;DHT22;32500;50.620;3.400;2023-03-01T08:33:11;14.30;51.40
46754;DHT22;32500;50.620;3.400;2023-03-01T08:37:02;14.20;50.20
46754;DHT22;32500;50.620;3.400;2023-03-01T08:39:28;14.20;51.20
46754;DHT22;32500;50.620;3.400;2023-03-01T08:41:54;14.20;51.30
46754;DHT22;32500;50.620;3.400;2023-03-01T08:44:20;14.20;51.60
46754;DHT22;32500;50.620;3.400;2023-03-01T08:46:49;14.20;51.80
46754;DHT22;32500;50.620;3.400;2023-03-01T08:49:18;14.20;51.50
46754;DHT22;32500;50.620;3.400;2023-03-01T08:51:44;14.40;52.40
46754;DHT22;32500;50.620;3.400;2023-03-01T08:54:13;14.40;52.50
46754;DHT22;32500;50.620;3.400;2023-03-01T08:59:01;14.30;52.10
46754;DHT22;32500;50.620;3.400;2023-03-01T09:01:27;14.40;52.40
46754;DHT22;32500;50.620;3.400;2023-03-01T09:03:52;14.40;51.90
46754;DHT22;32500;50.620;3.400;2023-03-01T09:06:18;14.40;51.10
46754;DHT22;32500;50.620;3.400;2023-03-01T09:08:46;14.30;50.80
46754;DHT22;32500;50.620;3.400;2023-03-01T09:11:15;14.30;51.10
46754;DHT22;32500;50.620;3.400;2023-03-01T09:13:42;14.20;51.90
46754;DHT22;32500;50.620;3.400;2023-03-01T09:16:08;14.30;52.40
46754;DHT22;32500;50.620;3.400;2023-03-01T09:18:35;14.20;52.80
46754;DHT22;32500;50.620;3.400;2023-03-01T09:21:06;14.30;53.20
46754;DHT22;32500;50.620;3.400;2023-03-01T09:23:36;14.30;53.40
46754;DHT22;32500;50.620;3.400;2023-03-01T09:26:04;14.30;54.10
46754;DHT22;32500;50.620;3.400;2023-03-01T09:28:30;14.30;53.70
46754;DHT22;32500;50.620;3.400;2023-03-01T09:31:00;14.30;54.20
46754;DHT22;32500;50.620;3.400;2023-03-01T09:33:27;14.30;54.20
46754;DHT22;32500;50.620;3.400;2023-03-01T09:35:58;14.40;54.40
46754;DHT22;32500;50.620;3.400;2023-03-01T09:38:23;14.50;54.20
46754;DHT22;32500;50.620;3.400;2023-03-01T09:40:49;14.50;54.20
46754;DHT22;32500;50.620;3.400;2023-03-01T09:43:23;14.40;54.10
46754;DHT22;32500;50.620;3.400;2023-03-01T09:45:53;14.50;54.20
46754;DHT22;32500;50.620;3.400;2023-03-01T09:48:23;14.60;53.70
46754;DHT22;32500;50.620;3.400;2023-03-01T09:50:51;14.60;53.70
46754;DHT22;32500;50.620;3.400;2023-03-01T09:53:20;14.70;53.50
46754;DHT22;32500;50.620;3.400;2023-03-01T09:56:05;14.80;53.60
46754;DHT22;32500;50.620;3.400;2023-03-01T10:07:21;14.90;53.20
46754;DHT22;32500;50.620;3.400;2023-03-01T10:09:47;14.90;53.40
46754;DHT22;32500;50.620;3.400;2023-03-01T10:12:30;14.90;52.70
46754;DHT22;32500;50.620;3.400;2023-03-01T10:17:48;14.90;52.10
46754;DHT22;32500;50.620;3.400;2023-03-01T10:20:19;14.90;52.10
46754;DHT22;32500;50.620;3.400;2023-03-01T10:22:45;14.90;52.20
46754;DHT22;32500;50.620;3.400;2023-03-01T10:25:17;14.80;52.70
46754;DHT22;32500;50.620;3.400;2023-03-01T10:27:53;14.90;52.70
46754;DHT22;32500;50.620;3.400;2023-03-01T10:30:40;15.00;53.80
46754;DHT22;32500;50.620;3.400;2023-03-01T10:33:23;15.00;53.80
46754;DHT22;32500;50.620;3.400;2023-03-01T10:35:50;15.00;54.10
46754;DHT22;32500;50.620;3.400;2023-03-01T10:38:16;15.10;54.30
46754;DHT22;32500;50.620;3.400;2023-03-01T10:43:26;15.10;53.60
46754;DHT22;32500;50.620;3.400;2023-03-01T10:45:53;15.20;53.60
46754;DHT22;32500;50.620;3.400;2023-03-01T10:48:26;15.20;53.70
46754;DHT22;32500;50.620;3.400;2023-03-01T10:56:11;15.30;53.70
46754;DHT22;32500;50.620;3.400;2023-03-01T10:59:00;15.40;53.60
46754;DHT22;32500;50.620;3.400;2023-03-01T11:01:33;15.40;53.90
46754;DHT22;32500;50.620;3.400;2023-03-01T11:06:33;15.50;53.60
46754;DHT22;32500;50.620;3.400;2023-03-01T11:09:20;15.50;53.70
46754;DHT22;32500;50.620;3.400;2023-03-01T11:11:54;15.60;53.30
46754;DHT22;32500;50.620;3.400;2023-03-01T11:14:25;15.60;53.40
46754;DHT22;32500;50.620;3.400;2023-03-01T11:17:29;15.50;53.30
46754;DHT22;32500;50.620;3.400;2023-03-01T11:22:54;15.70;54.00
46754;DHT22;32500;50.620;3.400;2023-03-01T11:25:28;15.70;54.00
46754;DHT22;32500;50.620;3.400;2023-03-01T11:27:56;15.70;54.00
46754;DHT22;32500;50.620;3.400;2023-03-01T11:31:01;15.60;53.80
46754;DHT22;32500;50.620;3.400;2023-03-01T11:38:42;15.60;53.90
46754;DHT22;32500;50.620;3.400;2023-03-01T11:41:26;15.60;54.10
46754;DHT22;32500;50.620;3.400;2023-03-01T11:44:00;15.60;53.70
46754;DHT22;32500;50.620;3.400;2023-03-01T11:51:56;15.60;52.90
46754;DHT22;32500;50.620;3.400;2023-03-01T11:54:30;15.60;52.20
46754;DHT22;32500;50.620;3.400;2023-03-01T12:08:16;15.60;52.10
46754;DHT22;32500;50.620;3.400;2023-03-01T12:14:07;15.60;52.30
46754;DHT22;32500;50.620;3.400;2023-03-01T12:24:32;15.70;53.30
46754;DHT22;32500;50.620;3.400;2023-03-01T12:38:06;15.80;52.20
46754;DHT22;32500;50.620;3.400;2023-03-01T12:40:46;15.90;52.00
46754;DHT22;32500;50.620;3.400;2023-03-01T12:43:33;15.90;52.10
46754;DHT22;32500;50.620;3.400;2023-03-01T12:46:14;15.90;51.60
46754;DHT22;32500;50.620;3.400;2023-03-01T12:51:23;15.90;51.90
46754;DHT22;32500;50.620;3.400;2023-03-01T12:53:53;15.90;52.30
46754;DHT22;32500;50.620;3.400;2023-03-01T12:56:37;16.00;52.60
46754;DHT22;32500;50.620;3.400;2023-03-01T13:02:23;16.00;52.90
46754;DHT22;32500;50.620;3.400;2023-03-01T13:05:18;16.00;53.30
46754;DHT22;32500;50.620;3.400;2023-03-01T13:07:55;16.00;53.50
46754;DHT22;32500;50.620;3.400;2023-03-01T13:10:51;15.90;53.60
46754;DHT22;32500;50.620;3.400;2023-03-01T13:13:21;15.90;53.90
46754;DHT22;32500;50.620;3.400;2023-03-01T13:15:48;15.90;53.30
46754;DHT22;32500;50.620;3.400;2023-03-01T13:20:47;15.90;52.40
46754;DHT22;32500;50.620;3.400;2023-03-01T13:23:26;16.00;51.90
46754;DHT22;32500;50.620;3.400;2023-03-01T13:28:39;16.10;51.60
46754;DHT22;32500;50.620;3.400;2023-03-01T13:36:11;16.20;52.10
46754;DHT22;32500;50.620;3.400;2023-03-01T13:39:00;16.30;52.00
46754;DHT22;32500;50.620;3.400;2023-03-01T13:50:02;16.60;51.70
46754;DHT22;32500;50.620;3.400;2023-03-01T13:54:55;16.70;51.70
46754;DHT22;32500;50.620;3.400;2023-03-01T13:57:25;16.70;51.40
46754;DHT22;32500;50.620;3.400;2023-03-01T13:59:51;16.70;51.50
46754;DHT22;32500;50.620;3.400;2023-03-01T14:02:17;16.60;51.60
46754;DHT22;32500;50.620;3.400;2023-03-01T14:04:42;16.70;51.40
46754;DHT22;32500;50.620;3.400;2023-03-01T14:07:19;16.70;51.70
46754;DHT22;32500;50.620;3.400;2023-03-01T14:09:48;16.80;52.40
46754;DHT22;32500;50.620;3.400;2023-03-01T14:12:50;16.70;52.50
46754;DHT22;32500;50.620;3.400;2023-03-01T14:18:07;16.60;53.00
46754;DHT22;32500;50.620;3.400;2023-03-01T14:20:40;16.60;53.30
46754;DHT22;32500;50.620;3.400;2023-03-01T14:23:13;16.50;53.40
46754;DHT22;32500;50.620;3.400;2023-03-01T14:25:47;16.40;53.30
46754;DHT22;32500;50.620;3.400;2023-03-01T14:28:30;16.40;53.60
46754;DHT22;32500;50.620;3.400;2023-03-01T14:31:00;16.50;54.10
46754;DHT22;32500;50.620;3.400;2023-03-01T14:33:36;16.50;54.40
46754;DHT22;32500;50.620;3.400;2023-03-01T14:36:06;16.50;54.20
46754;DHT22;32500;50.620;3.400;2023-03-01T14:38:38;16.50;54.60
46754;DHT22;32500;50.620;3.400;2023-03-01T14:41:22;16.50;54.40
46754;DHT22;32500;50.620;3.400;2023-03-01T14:43:55;16.50;54.10
46754;DHT22;32500;50.620;3.400;2023-03-01T14:48:58;16.60;54.50
46754;DHT22;32500;50.620;3.400;2023-03-01T14:51:26;16.70;54.70
46754;DHT22;32500;50.620;3.400;2023-03-01T14:53:52;16.60;54.80
46754;DHT22;32500;50.620;3.400;2023-03-01T14:56:19;16.60;55.10
46754;DHT22;32500;50.620;3.400;2023-03-01T14:58:45;16.70;55.20
46754;DHT22;32500;50.620;3.400;2023-03-01T15:01:17;16.70;55.70
46754;DHT22;32500;50.620;3.400;2023-03-01T15:03:48;16.60;55.10
46754;DHT22;32500;50.620;3.400;2023-03-01T15:06:19;16.60;54.70
46754;DHT22;32500;50.620;3.400;2023-03-01T15:08:50;16.60;54.90
46754;DHT22;32500;50.620;3.400;2023-03-01T15:11:50;16.60;55.00
46754;DHT22;32500;50.620;3.400;2023-03-01T15:14:27;16.60;55.10
46754;DHT22;32500;50.620;3.400;2023-03-01T15:16:54;16.60;55.10
46754;DHT22;32500;50.620;3.400;2023-03-01T15:19:27;16.70;55.40
46754;DHT22;32500;50.620;3.400;2023-03-01T15:21:54;16.60;55.50
46754;DHT22;32500;50.620;3.400;2023-03-01T15:24:24;16.70;55.70
46754;DHT22;32500;50.620;3.400;2023-03-01T15:26:58;16.70;55.40
46754;DHT22;32500;50.620;3.400;2023-03-01T15:29:29;16.60;55.10
46754;DHT22;32500;50.620;3.400;2023-03-01T15:32:05;16.70;54.70
46754;DHT22;32500;50.620;3.400;2023-03-01T15:34:38;16.70;54.20
46754;DHT22;32500;50.620;3.400;2023-03-01T15:37:06;16.70;54.10
46754;DHT22;32500;50.620;3.400;2023-03-01T15:39:56;16.70;54.00
46754;DHT22;32500;50.620;3.400;2023-03-01T15:47:35;16.80;51.60
46754;DHT22;32500;50.620;3.400;2023-03-01T15:50:01;16.90;50.80
46754;DHT22;32500;50.620;3.400;2023-03-01T15:52:50;17.00;50.50
46754;DHT22;32500;50.620;3.400;2023-03-01T15:55:21;17.00;50.30
46754;DHT22;32500;50.620;3.400;2023-03-01T15:57:48;17.00;50.10
46754;DHT22;32500;50.620;3.400;2023-03-01T16:00:15;17.00;50.10
46754;DHT22;32500;50.620;3.400;2023-03-01T16:02:42;17.00;50.90
46754;DHT22;32500;50.620;3.400;2023-03-01T16:05:27;17.00;50.20
46754;DHT22;32500;50.620;3.400;2023-03-01T16:07:54;17.00;50.00
46754;DHT22;32500;50.620;3.400;2023-03-01T16:10:20;17.00;50.00
46754;DHT22;32500;50.620;3.400;2023-03-01T16:12:46;16.90;50.00
46754;DHT22;32500;50.620;3.400;2023-03-01T16:15:17;16.80;50.00
46754;DHT22;32500;50.620;3.400;2023-03-01T16:17:43;16.80;50.00
46754;DHT22;32500;50.620;3.400;2023-03-01T16:20:10;16.80;49.90
46754;DHT22;32500;50.620;3.400;2023-03-01T16:22:35;16.80;49.80
46754;DHT22;32500;50.620;3.400;2023-03-01T16:25:01;16.80;49.90
46754;DHT22;32500;50.620;3.400;2023-03-01T16:27:28;16.80;50.10
46754;DHT22;32500;50.620;3.400;2023-03-01T16:29:54;16.80;50.00
46754;DHT22;32500;50.620;3.400;2023-03-01T16:32:19;16.70;50.20
46754;DHT22;32500;50.620;3.400;2023-03-01T16:34:45;16.80;49.90
46754;DHT22;32500;50.620;3.400;2023-03-01T16:37:14;16.80;49.90
46754;DHT22;32500;50.620;3.400;2023-03-01T16:39:40;16.70;49.90
46754;DHT22;32500;50.620;3.400;2023-03-01T16:42:06;16.70;49.90
46754;DHT22;32500;50.620;3.400;2023-03-01T16:44:32;16.70;50.00
46754;DHT22;32500;50.620;3.400;2023-03-01T16:46:57;16.70;50.10
46754;DHT22;32500;50.620;3.400;2023-03-01T16:49:23;16.60;50.20
46754;DHT22;32500;50.620;3.400;2023-03-01T16:51:48;16.70;50.20
46754;DHT22;32500;50.620;3.400;2023-03-01T16:54:14;16.60;50.40
46754;DHT22;32500;50.620;3.400;2023-03-01T16:56:40;16.60;50.90
46754;DHT22;32500;50.620;3.400;2023-03-01T16:59:06;16.60;50.40
46754;DHT22;32500;50.620;3.400;2023-03-01T17:01:32;16.60;50.20
46754;DHT22;32500;50.620;3.400;2023-03-01T17:04:06;16.60;50.30
46754;DHT22;32500;50.620;3.400;2023-03-01T17:06:38;16.60;50.20
46754;DHT22;32500;50.620;3.400;2023-03-01T17:09:04;16.50;50.20
46754;DHT22;32500;50.620;3.400;2023-03-01T17:11:30;16.50;50.20
46754;DHT22;32500;50.620;3.400;2023-03-01T17:13:56;16.40;50.30
46754;DHT22;32500;50.620;3.400;2023-03-01T17:16:21;16.40;50.00
46754;DHT22;32500;50.620;3.400;2023-03-01T17:18:48;16.30;50.00
46754;DHT22;32500;50.620;3.400;2023-03-01T17:21:14;16.10;50.60
46754;DHT22;32500;50.620;3.400;2023-03-01T17:23:41;16.10;50.40
46754;DHT22;32500;50.620;3.400;2023-03-01T17:26:07;16.10;50.30
46754;DHT22;32500;50.620;3.400;2023-03-01T17:28:34;16.10;50.30
46754;DHT22;32500;50.620;3.400;2023-03-01T17:31:03;16.30;50.20
46754;DHT22;32500;50.620;3.400;2023-03-01T17:33:30;16.40;49.80
46754;DHT22;32500;50.620;3.400;2023-03-01T17:35:56;16.50;49.60
46754;DHT22;32500;50.620;3.400;2023-03-01T17:38:22;16.50;49.30
46754;DHT22;32500;50.620;3.400;2023-03-01T17:40:47;16.60;49.30
46754;DHT22;32500;50.620;3.400;2023-03-01T17:43:15;16.60;49.40
46754;DHT22;32500;50.620;3.400;2023-03-01T17:45:41;16.70;49.20
46754;DHT22;32500;50.620;3.400;2023-03-01T17:48:09;16.70;48.90
46754;DHT22;32500;50.620;3.400;2023-03-01T17:50:37;16.70;48.90
46754;DHT22;32500;50.620;3.400;2023-03-01T17:53:05;16.70;48.90
46754;DHT22;32500;50.620;3.400;2023-03-01T17:55:41;16.70;48.70
46754;DHT22;32500;50.620;3.400;2023-03-01T17:58:08;16.80;48.70